Time;durP1;ratioP1;P1;durP2;ratioP2;P2;SDS_P1;SDS_P2;PMS_P1;PMS_P2;Temp;Humidity;BMP_temperature;BMP_pressure;BME280_temperature;BME280_humidity;BME280_pressure;Samples;Min_cycle;Max_cycle;Signal;HPM_P1;HPM_P2
2022/03/08 00:00:27;;;;;;;;;;;;;;;-5.28;100.00;96284.28;1038220;28;19925;-72
2022/03/08 00:00:57;;;;;;;;;;;;;;;-5.24;100.00;96283.03;1034589;28;20004;-72
2022/03/08 00:01:28;;;;;;;;;;;;;;;-5.26;100.00;96284.97;1033455;28;19928;-71
2022/03/08 00:01:59;;;;;;;;;;;;;;;-5.25;100.00;96287.34;1030780;28;19922;-72
2022/03/08 00:02:29;;;;;;;;;;;;;;;-5.24;100.00;96283.03;1022972;28;19926;-72
2022/03/08 00:02:59;;;;;;;;;;;;;;;-5.25;100.00;96282.25;1022515;28;19926;-72
2022/03/08 00:03:29;;;;;;;;;;;;;;;-5.26;100.00;96283.19;1030905;28;20427;-72
2022/03/08 00:04:00;;;;;;;;;;;;;;;-5.25;100.00;96284.78;1030887;28;19921;-72
2022/03/08 00:04:30;;;;;;;;;;;;;;;-5.22;100.00;96281.16;1031040;28;19914;-71
2022/03/08 00:05:00;;;;;;;;;;;;;;;-5.22;100.00;96281.94;1028751;28;19922;-72
2022/03/08 00:05:34;;;;;;;;;;;;;;;-5.23;100.00;96279.53;1030730;28;20086;-72
2022/03/08 00:06:04;;;;;;;;;;;;;;;-5.26;100.00;96280.66;1022701;29;20273;-72
2022/03/08 00:06:34;;;;;;;;;;;;;;;-5.25;100.00;96281.44;1023645;28;20419;-71
2022/03/08 00:07:05;;;;;;;;;;;;;;;-5.27;100.00;96278.22;1026298;28;19910;-71
2022/03/08 00:07:35;;;;;;;;;;;;;;;-5.29;100.00;96280.16;1018760;28;20431;-72
2022/03/08 00:08:05;;;;;;;;;;;;;;;-5.26;100.00;96275.53;1026729;28;19922;-72
2022/03/08 00:08:36;;;;;;;;;;;;;;;-5.27;100.00;96275.66;1026743;28;19929;-72
2022/03/08 00:09:06;;;;;;;;;;;;;;;-5.30;100.00;96279.34;1022681;28;19918;-72
2022/03/08 00:09:37;;;;;;;;;;;;;;;-5.32;100.00;96286.34;1030752;28;19928;-70
2022/03/08 00:10:08;;;;;;;;;;;;;;;-5.32;100.00;96283.78;1030675;28;20334;-72
2022/03/08 00:10:38;;;;;;;;;;;;;;;-5.34;100.00;96282.34;1029576;28;20020;-72
2022/03/08 00:11:09;;;;;;;;;;;;;;;-5.36;100.00;96279.16;1022774;28;19921;-72
2022/03/08 00:11:39;;;;;;;;;;;;;;;-5.39;100.00;96279.44;1026660;28;19958;-72
2022/03/08 00:12:10;;;;;;;;;;;;;;;-5.40;100.00;96275.25;1030684;28;19918;-71
2022/03/08 00:12:40;;;;;;;;;;;;;;;-5.37;100.00;96280.06;1030991;28;19941;-72
2022/03/08 00:13:10;;;;;;;;;;;;;;;-5.36;100.00;96279.94;1038700;28;20477;-72
2022/03/08 00:13:41;;;;;;;;;;;;;;;-5.41;100.00;96266.00;1039982;28;19973;-71
2022/03/08 00:14:11;;;;;;;;;;;;;;;-5.39;100.00;96282.00;1031498;28;19928;-72
2022/03/08 00:14:42;;;;;;;;;;;;;;;-5.37;100.00;96277.50;1027108;28;20322;-72
2022/03/08 00:15:12;;;;;;;;;;;;;;;-5.39;100.00;96274.31;1018589;29;19974;-71
2022/03/08 00:15:43;;;;;;;;;;;;;;;-5.39;100.00;96279.44;1017276;29;19911;-72
2022/03/08 00:16:13;;;;;;;;;;;;;;;-5.41;100.00;96278.78;1023131;28;19949;-71
2022/03/08 00:16:43;;;;;;;;;;;;;;;-5.41;100.00;96279.56;1022678;28;19914;-71
2022/03/08 00:17:14;;;;;;;;;;;;;;;-5.39;100.00;96279.44;1024763;28;19986;-72
2022/03/08 00:17:44;;;;;;;;;;;;;;;-5.36;100.00;96277.38;1022820;29;19914;-71
2022/03/08 00:18:17;;;;;;;;;;;;;;;-5.37;100.00;96272.41;1019083;29;19961;-72
2022/03/08 00:18:48;;;;;;;;;;;;;;;-5.40;100.00;96277.81;1019373;28;20460;-73
2022/03/08 00:19:19;;;;;;;;;;;;;;;-5.39;100.00;96274.31;1027020;28;19921;-71
2022/03/08 00:19:49;;;;;;;;;;;;;;;-5.41;100.00;96268.53;1023334;28;19911;-71
2022/03/08 00:20:19;;;;;;;;;;;;;;;-5.42;100.00;96275.41;1022487;28;19918;-73
2022/03/08 00:20:50;;;;;;;;;;;;;;;-5.38;100.00;96273.38;1026775;28;20402;-71
2022/03/08 00:21:20;;;;;;;;;;;;;;;-5.42;100.00;96284.84;1022677;28;20049;-71
2022/03/08 00:21:50;;;;;;;;;;;;;;;-5.43;100.00;96273.00;1026629;28;19910;-72
2022/03/08 00:22:21;;;;;;;;;;;;;;;-5.42;100.00;96274.63;1022729;29;19910;-71
2022/03/08 00:22:51;;;;;;;;;;;;;;;-5.42;100.00;96269.50;1022578;28;19916;-71
2022/03/08 00:23:21;;;;;;;;;;;;;;;-5.47;100.00;96265.63;1022816;28;19911;-73
2022/03/08 00:23:52;;;;;;;;;;;;;;;-5.50;100.00;96270.22;1030669;28;19937;-72
2022/03/08 00:24:22;;;;;;;;;;;;;;;-5.47;100.00;96273.28;1030608;28;20374;-72
2022/03/08 00:24:52;;;;;;;;;;;;;;;-5.47;100.00;96272.50;1030528;28;19914;-73
2022/03/08 00:25:23;;;;;;;;;;;;;;;-5.49;100.00;96272.66;1034715;28;20354;-71
2022/03/08 00:25:53;;;;;;;;;;;;;;;-5.51;100.00;96272.00;1030631;28;19910;-73
2022/03/08 00:26:24;;;;;;;;;;;;;;;-5.54;100.00;96268.94;1030532;28;19921;-71
2022/03/08 00:26:54;;;;;;;;;;;;;;;-5.56;100.00;96269.09;1034889;28;19913;-71
2022/03/08 00:27:28;;;;;;;;;;;;;;;-5.56;100.00;96266.53;1030518;28;19910;-72
2022/03/08 00:27:58;;;;;;;;;;;;;;;-5.58;100.00;96273.53;1030293;28;19941;-71
2022/03/08 00:28:28;;;;;;;;;;;;;;;-5.59;100.00;96264.28;1026557;28;19910;-72
2022/03/08 00:28:58;;;;;;;;;;;;;;;-5.58;100.00;96271.00;1026935;28;19915;-71
2022/03/08 00:29:29;;;;;;;;;;;;;;;-5.60;100.00;96269.53;1030543;28;19921;-72
2022/03/08 00:29:59;;;;;;;;;;;;;;;-5.65;100.00;96264.88;1026383;28;20374;-71
2022/03/08 00:30:30;;;;;;;;;;;;;;;-5.62;100.00;96266.34;1026108;28;20099;-71
2022/03/08 00:31:02;;;;;;;;;;;;;;;-5.62;100.00;96264.56;1026516;28;19972;-70
2022/03/08 00:31:33;;;;;;;;;;;;;;;-5.62;100.00;96264.56;1026541;28;19921;-71
2022/03/08 00:32:03;;;;;;;;;;;;;;;-5.62;100.00;96262.00;1026643;28;19922;-72
2022/03/08 00:32:34;;;;;;;;;;;;;;;-5.60;100.00;96261.84;1027129;28;20679;-72
2022/03/08 00:33:04;;;;;;;;;;;;;;;-5.59;100.00;96259.16;1030390;28;19925;-71
2022/03/08 00:33:35;;;;;;;;;;;;;;;-5.60;100.00;96267.78;1026757;28;20410;-71
2022/03/08 00:34:05;;;;;;;;;;;;;;;-5.60;100.00;96266.97;1018537;28;20674;-72
2022/03/08 00:34:35;;;;;;;;;;;;;;;-5.65;100.00;96258.97;1026475;28;20325;-71
2022/03/08 00:35:08;;;;;;;;;;;;;;;-5.65;100.00;96259.75;1022685;29;20020;-71
2022/03/08 00:35:39;;;;;;;;;;;;;;;-5.68;100.00;96260.84;1023041;28;20300;-73
2022/03/08 00:36:09;;;;;;;;;;;;;;;-5.70;100.00;96257.66;1022464;29;19923;-71
2022/03/08 00:36:39;;;;;;;;;;;;;;;-5.66;100.00;96263.28;1022480;29;19995;-72
2022/03/08 00:37:10;;;;;;;;;;;;;;;-5.72;100.00;96259.53;1022634;29;19929;-73
2022/03/08 00:37:40;;;;;;;;;;;;;;;-5.68;100.00;96265.16;1019950;29;19946;-70
2022/03/08 00:38:13;;;;;;;;;;;;;;;-5.66;100.00;96258.16;1023362;28;19919;-71
2022/03/08 00:38:43;;;;;;;;;;;;;;;-5.69;100.00;96256.69;1030982;28;20404;-71
2022/03/08 00:39:14;;;;;;;;;;;;;;;-5.66;100.00;96260.72;1034621;28;19964;-72
2022/03/08 00:39:44;;;;;;;;;;;;;;;-5.68;100.00;96254.94;1030488;28;19918;-72
2022/03/08 00:40:15;;;;;;;;;;;;;;;-5.70;100.00;96257.66;1030403;28;19926;-72
2022/03/08 00:40:45;;;;;;;;;;;;;;;-5.70;100.00;96256.81;1034008;28;19945;-72
2022/03/08 00:41:16;;;;;;;;;;;;;;;-5.72;100.00;96258.75;1030368;28;19922;-71
2022/03/08 00:41:46;;;;;;;;;;;;;;;-5.71;100.00;96260.34;1026678;28;20311;-73
2022/03/08 00:42:17;;;;;;;;;;;;;;;-5.75;100.00;96262.41;1022564;29;20336;-71
2022/03/08 00:42:47;;;;;;;;;;;;;;;-5.76;100.00;96260.00;1018694;29;19946;-72
2022/03/08 00:43:18;;;;;;;;;;;;;;;-5.77;100.00;96264.31;1017009;29;19962;-71
2022/03/08 00:43:48;;;;;;;;;;;;;;;-5.71;100.00;96257.78;1018845;29;19923;-71
2022/03/08 00:44:18;;;;;;;;;;;;;;;-5.74;100.00;96266.53;1022418;29;19918;-71
2022/03/08 00:44:49;;;;;;;;;;;;;;;-5.74;100.00;96263.19;1018562;29;20324;-72
2022/03/08 00:45:19;;;;;;;;;;;;;;;-5.71;100.00;96260.34;1022375;28;19922;-72
2022/03/08 00:45:49;;;;;;;;;;;;;;;-5.68;100.00;96260.06;1018299;28;19923;-72
2022/03/08 00:46:20;;;;;;;;;;;;;;;-5.66;100.00;96268.38;1022386;29;19926;-73
2022/03/08 00:46:50;;;;;;;;;;;;;;;-5.61;100.00;96273.03;1025932;28;19922;-72
2022/03/08 00:47:23;;;;;;;;;;;;;;;-5.57;100.00;96271.78;1025167;28;19930;-72
2022/03/08 00:47:53;;;;;;;;;;;;;;;-5.54;100.00;96272.28;1022709;29;20037;-71
2022/03/08 00:48:24;;;;;;;;;;;;;;;-5.52;100.00;96267.84;1019093;29;19929;-72
2022/03/08 00:48:55;;;;;;;;;;;;;;;-5.56;100.00;96269.09;1022510;29;20022;-73
2022/03/08 00:49:26;;;;;;;;;;;;;;;-5.55;100.00;96269.91;1022628;28;19922;-72
2022/03/08 00:49:56;;;;;;;;;;;;;;;-5.59;100.00;96264.28;1022213;28;19963;-73
2022/03/08 00:50:27;;;;;;;;;;;;;;;-5.60;100.00;96260.13;1026328;28;19973;-73
2022/03/08 00:50:57;;;;;;;;;;;;;;;-5.61;100.00;96260.25;1021118;28;19985;-72
2022/03/08 00:51:27;;;;;;;;;;;;;;;-5.57;100.00;96261.56;1022609;29;19921;-72
2022/03/08 00:51:58;;;;;;;;;;;;;;;-5.52;100.00;96264.47;1022715;29;20457;-74
2022/03/08 00:52:28;;;;;;;;;;;;;;;-5.53;100.00;96258.56;1014904;29;20528;-72
2022/03/08 00:53:01;;;;;;;;;;;;;;;-5.51;100.00;96259.22;1018688;29;20430;-73
2022/03/08 00:53:31;;;;;;;;;;;;;;;-5.53;100.00;96268.81;1022517;29;20427;-72
2022/03/08 00:54:05;;;;;;;;;;;;;;;-5.54;100.00;96269.72;1021958;28;20010;-71
2022/03/08 00:54:35;;;;;;;;;;;;;;;-5.55;100.00;96270.69;1026551;28;19918;-72
2022/03/08 00:55:06;;;;;;;;;;;;;;;-5.54;100.00;96269.72;1026499;28;20024;-72
2022/03/08 00:55:36;;;;;;;;;;;;;;;-5.52;100.00;96262.72;1026611;28;19929;-73
2022/03/08 00:56:06;;;;;;;;;;;;;;;-5.49;100.00;96270.09;1022827;28;19978;-72
2022/03/08 00:56:36;;;;;;;;;;;;;;;-5.51;100.00;96266.88;1026509;28;20410;-71
2022/03/08 00:57:07;;;;;;;;;;;;;;;-5.47;100.00;96272.50;1026671;28;19925;-72
2022/03/08 00:57:37;;;;;;;;;;;;;;;-5.51;100.00;96269.44;1030657;28;19925;-72
2022/03/08 00:58:10;;;;;;;;;;;;;;;-5.52;100.00;96264.47;1029617;28;19977;-72
2022/03/08 00:58:41;;;;;;;;;;;;;;;-5.56;100.00;96261.44;1026993;28;19965;-72
2022/03/08 00:59:14;;;;;;;;;;;;;;;-5.58;100.00;96270.19;1027263;28;20007;-71
2022/03/08 00:59:44;;;;;;;;;;;;;;;-5.59;100.00;96264.28;1022765;29;20335;-72
2022/03/08 01:00:15;;;;;;;;;;;;;;;-5.57;100.00;96264.13;1022616;29;19978;-71
2022/03/08 01:00:45;;;;;;;;;;;;;;;-5.61;100.00;96258.50;1022140;28;20014;-72
2022/03/08 01:01:16;;;;;;;;;;;;;;;-5.62;100.00;96261.22;1028342;28;19918;-72
2022/03/08 01:01:46;;;;;;;;;;;;;;;-5.63;100.00;96265.53;1030538;28;19964;-72
2022/03/08 01:02:17;;;;;;;;;;;;;;;-5.61;100.00;96263.63;1026678;28;19918;-72
2022/03/08 01:02:47;;;;;;;;;;;;;;;-5.63;100.00;96268.09;1026839;28;19929;-73
2022/03/08 01:03:17;;;;;;;;;;;;;;;-5.63;100.00;96260.41;1026458;28;19938;-72
2022/03/08 01:03:48;;;;;;;;;;;;;;;-5.62;100.00;96262.00;1019420;28;19923;-72
2022/03/08 01:04:18;;;;;;;;;;;;;;;-5.60;100.00;96265.25;1024976;28;19926;-71
2022/03/08 01:04:48;;;;;;;;;;;;;;;-5.62;100.00;96258.66;1026680;28;19929;-73
2022/03/08 01:05:19;;;;;;;;;;;;;;;-5.66;100.00;96258.16;1028379;28;19922;-73
2022/03/08 01:05:49;;;;;;;;;;;;;;;-5.65;100.00;96259.75;1026719;28;19918;-72
2022/03/08 01:06:20;;;;;;;;;;;;;;;-5.64;100.00;96260.56;1027102;28;20022;-72
2022/03/08 01:06:50;;;;;;;;;;;;;;;-5.62;100.00;96264.56;1026774;28;19930;-73
2022/03/08 01:07:20;;;;;;;;;;;;;;;-5.67;100.00;96259.09;1034887;28;19927;-71
2022/03/08 01:07:50;;;;;;;;;;;;;;;-5.71;100.00;96260.34;1034882;28;19929;-72
2022/03/08 01:08:30;;;;;;;;;;;;;;;-5.75;100.00;96259.84;1034963;28;19922;-73
2022/03/08 01:09:01;;;;;;;;;;;;;;;-5.73;100.00;96262.25;1030791;28;19928;-71
2022/03/08 01:09:33;;;;;;;;;;;;;;;-5.78;100.00;96255.03;1027277;28;20402;-73
2022/03/08 01:10:04;;;;;;;;;;;;;;;-5.79;100.00;96262.84;1026815;28;20292;-72
2022/03/08 01:10:34;;;;;;;;;;;;;;;-5.80;100.00;96258.66;1023940;28;19926;-73
2022/03/08 01:11:05;;;;;;;;;;;;;;;-5.82;100.00;96258.03;1019004;29;19926;-72
2022/03/08 01:11:36;;;;;;;;;;;;;;;-5.82;100.00;96261.38;1022673;28;19998;-74
2022/03/08 01:12:07;;;;;;;;;;;;;;;-5.81;100.00;96259.63;1026407;28;19933;-72
2022/03/08 01:12:37;;;;;;;;;;;;;;;-5.84;100.00;96257.38;1026884;28;20470;-72
2022/03/08 01:13:07;;;;;;;;;;;;;;;-5.84;100.00;96259.91;1026802;28;20566;-73
2022/03/08 01:13:38;;;;;;;;;;;;;;;-5.81;100.00;96251.97;1026825;28;19965;-72
2022/03/08 01:14:08;;;;;;;;;;;;;;;-5.80;100.00;96261.22;1030738;28;19924;-72
2022/03/08 01:14:38;;;;;;;;;;;;;;;-5.81;100.00;96259.63;1026699;28;19920;-72
2022/03/08 01:15:12;;;;;;;;;;;;;;;-5.84;100.00;96260.72;1030910;28;19969;-72
2022/03/08 01:15:42;;;;;;;;;;;;;;;-5.82;100.00;96256.28;1027104;28;19926;-73
2022/03/08 01:16:13;;;;;;;;;;;;;;;-5.85;100.00;96259.13;1026746;28;20723;-72
2022/03/08 01:16:43;;;;;;;;;;;;;;;-5.85;100.00;96255.78;1030495;28;20020;-72
2022/03/08 01:17:14;;;;;;;;;;;;;;;-5.87;100.00;96252.53;1028920;28;19921;-72
2022/03/08 01:17:44;;;;;;;;;;;;;;;-5.84;100.00;96240.28;1026699;28;20437;-72
2022/03/08 01:18:15;;;;;;;;;;;;;;;-5.89;100.00;96252.72;1030850;28;19925;-72
2022/03/08 01:18:45;;;;;;;;;;;;;;;-5.88;100.00;96248.41;1031210;28;19922;-74
2022/03/08 01:19:18;;;;;;;;;;;;;;;-5.87;100.00;96252.53;1034647;28;19995;-72
2022/03/08 01:19:52;;;;;;;;;;;;;;;-5.88;100.00;96250.94;1034603;28;20035;-72
2022/03/08 01:20:22;;;;;;;;;;;;;;;-5.90;100.00;96250.28;1026204;28;20023;-72
2022/03/08 01:20:53;;;;;;;;;;;;;;;-5.93;100.00;96249.69;1026520;28;19922;-72
2022/03/08 01:21:23;;;;;;;;;;;;;;;-5.95;100.00;96243.09;1022835;29;19922;-72
2022/03/08 01:21:53;;;;;;;;;;;;;;;-5.95;100.00;96243.91;1018795;28;20610;-72
2022/03/08 01:22:23;;;;;;;;;;;;;;;-5.95;100.00;96243.09;1026775;28;19993;-72
2022/03/08 01:22:54;;;;;;;;;;;;;;;-5.94;100.00;96240.38;1030714;28;19917;-73
2022/03/08 01:23:24;;;;;;;;;;;;;;;-5.93;100.00;96241.22;1026863;28;19918;-72
2022/03/08 01:23:54;;;;;;;;;;;;;;;-5.90;100.00;96238.34;1030751;28;19921;-72
2022/03/08 01:24:25;;;;;;;;;;;;;;;-5.93;100.00;96242.00;1031626;28;19914;-72
2022/03/08 01:24:55;;;;;;;;;;;;;;;-5.89;100.00;96236.59;1030700;28;19918;-71
2022/03/08 01:25:25;;;;;;;;;;;;;;;-5.93;100.00;96234.34;1022712;29;19917;-71
2022/03/08 01:25:56;;;;;;;;;;;;;;;-5.88;100.00;96250.94;1018744;29;19929;-72
2022/03/08 01:26:26;;;;;;;;;;;;;;;-5.88;100.00;96246.63;1026473;28;19918;-72
2022/03/08 01:26:56;;;;;;;;;;;;;;;-5.85;100.00;96240.44;1026755;28;19992;-72
2022/03/08 01:27:27;;;;;;;;;;;;;;;-5.82;100.00;96232.47;1030583;28;20371;-72
2022/03/08 01:27:57;;;;;;;;;;;;;;;-5.84;100.00;96234.38;1030619;28;19918;-72
2022/03/08 01:28:27;;;;;;;;;;;;;;;-5.86;100.00;96231.19;1034557;28;20334;-72
2022/03/08 01:28:58;;;;;;;;;;;;;;;-5.87;100.00;96232.91;1026543;28;19977;-73
2022/03/08 01:29:28;;;;;;;;;;;;;;;-5.86;100.00;96231.19;1030472;28;19921;-74
2022/03/08 01:29:58;;;;;;;;;;;;;;;-5.85;100.00;96230.22;1026842;28;20277;-72
2022/03/08 01:30:28;;;;;;;;;;;;;;;-5.87;100.00;96239.78;1029896;28;19917;-72
2022/03/08 01:30:59;;;;;;;;;;;;;;;-5.89;100.00;96234.03;1034904;28;19917;-73
2022/03/08 01:31:29;;;;;;;;;;;;;;;-5.93;100.00;96244.56;1030684;28;20451;-73
2022/03/08 01:31:59;;;;;;;;;;;;;;;-5.95;100.00;96238.00;1034631;28;19941;-72
2022/03/08 01:32:30;;;;;;;;;;;;;;;-5.96;100.00;96236.41;1038716;28;19932;-73
2022/03/08 01:33:00;;;;;;;;;;;;;;;-5.98;100.00;96236.53;1034692;28;19906;-72
2022/03/08 01:33:30;;;;;;;;;;;;;;;-5.94;100.00;96239.59;1029125;28;20401;-74
2022/03/08 01:34:02;;;;;;;;;;;;;;;-5.96;100.00;96237.19;1034431;28;20381;-72
2022/03/08 01:34:34;;;;;;;;;;;;;;;-5.95;100.00;96231.13;1034483;28;19917;-72
2022/03/08 01:35:04;;;;;;;;;;;;;;;-5.97;100.00;96225.38;1034930;28;19976;-73
2022/03/08 01:35:34;;;;;;;;;;;;;;;-5.97;100.00;96227.94;1026748;28;19949;-72
2022/03/08 01:36:05;;;;;;;;;;;;;;;-5.99;100.00;96224.72;1026620;28;19914;-72
2022/03/08 01:36:35;;;;;;;;;;;;;;;-5.98;100.00;96233.19;1026366;28;20185;-72
2022/03/08 01:37:05;;;;;;;;;;;;;;;-5.97;100.00;96234.78;1027207;28;19945;-72
2022/03/08 01:37:36;;;;;;;;;;;;;;;-5.98;100.00;96230.63;1030947;28;20295;-74
2022/03/08 01:38:06;;;;;;;;;;;;;;;-5.94;100.00;96221.72;1034980;28;20011;-73
2022/03/08 01:38:36;;;;;;;;;;;;;;;-5.95;100.00;96235.44;1038863;28;19917;-71
2022/03/08 01:39:07;;;;;;;;;;;;;;;-5.94;100.00;96225.06;1030915;28;19928;-72
2022/03/08 01:39:37;;;;;;;;;;;;;;;-5.94;100.00;96225.06;1026696;28;19922;-73
2022/03/08 01:40:08;;;;;;;;;;;;;;;-5.93;100.00;96226.69;1022817;29;19919;-73
2022/03/08 01:40:38;;;;;;;;;;;;;;;-5.96;100.00;96226.19;1022168;28;19911;-73
2022/03/08 01:41:09;;;;;;;;;;;;;;;-5.99;100.00;96217.06;1031131;28;19914;-72
2022/03/08 01:41:39;;;;;;;;;;;;;;;-5.96;100.00;96221.88;1034804;28;19917;-71
2022/03/08 01:42:10;;;;;;;;;;;;;;;-5.99;100.00;96221.38;1034713;28;19910;-72
2022/03/08 01:42:41;;;;;;;;;;;;;;;-5.98;100.00;96221.19;1038747;28;19905;-73
2022/03/08 01:43:11;;;;;;;;;;;;;;;-5.99;100.00;96214.50;1034705;28;19921;-72
2022/03/08 01:43:42;;;;;;;;;;;;;;;-5.98;100.00;96223.75;1039060;28;20192;-73
2022/03/08 01:44:12;;;;;;;;;;;;;;;-5.98;100.00;96223.75;1030533;28;20384;-72
2022/03/08 01:44:43;;;;;;;;;;;;;;;-5.95;100.00;96222.66;1026489;28;19910;-72
2022/03/08 01:45:17;;;;;;;;;;;;;;;-5.96;100.00;96226.97;1026678;28;19973;-72
2022/03/08 01:45:48;;;;;;;;;;;;;;;-5.93;100.00;96218.22;1023876;28;19907;-72
2022/03/08 01:46:18;;;;;;;;;;;;;;;-5.96;100.00;96219.31;1027236;28;19910;-72
2022/03/08 01:46:48;;;;;;;;;;;;;;;-5.95;100.00;96223.47;1030511;28;20348;-73
2022/03/08 01:47:19;;;;;;;;;;;;;;;-5.99;100.00;96221.38;1026771;28;19997;-72
2022/03/08 01:47:50;;;;;;;;;;;;;;;-6.01;100.00;96218.94;1030780;28;19914;-72
2022/03/08 01:48:21;;;;;;;;;;;;;;;-6.02;100.00;96217.34;1026610;28;19914;-73
2022/03/08 01:48:51;;;;;;;;;;;;;;;-6.04;100.00;96216.69;1026693;28;19914;-72
2022/03/08 01:49:21;;;;;;;;;;;;;;;-6.02;100.00;96230.13;1026655;28;19933;-72
2022/03/08 01:49:52;;;;;;;;;;;;;;;-6.04;100.00;96224.34;1022636;28;19978;-72
2022/03/08 01:50:22;;;;;;;;;;;;;;;-6.06;100.00;96220.34;1022220;28;19910;-71
2022/03/08 01:50:56;;;;;;;;;;;;;;;-6.08;100.00;96228.16;1026646;28;19914;-71
2022/03/08 01:51:26;;;;;;;;;;;;;;;-6.07;100.00;96221.28;1030706;28;19910;-71
2022/03/08 01:51:56;;;;;;;;;;;;;;;-6.07;100.00;96224.66;1030912;28;20346;-72
2022/03/08 01:52:27;;;;;;;;;;;;;;;-6.07;100.00;96218.72;1031270;28;20359;-71
2022/03/08 01:52:57;;;;;;;;;;;;;;;-6.10;100.00;96219.84;1026710;28;19976;-74
2022/03/08 01:53:27;;;;;;;;;;;;;;;-6.10;100.00;96219.00;1022456;28;19958;-71
2022/03/08 01:53:58;;;;;;;;;;;;;;;-6.07;100.00;96222.09;1022862;28;19925;-72
2022/03/08 01:54:28;;;;;;;;;;;;;;;-6.09;100.00;96221.44;1022755;29;19933;-72
2022/03/08 01:54:58;;;;;;;;;;;;;;;-6.08;100.00;96227.34;1026937;28;20384;-71
2022/03/08 01:55:29;;;;;;;;;;;;;;;-6.09;100.00;96218.88;1023431;28;19975;-72
2022/03/08 01:55:59;;;;;;;;;;;;;;;-6.09;100.00;96216.34;1026834;28;19930;-72
2022/03/08 01:56:29;;;;;;;;;;;;;;;-6.09;100.00;96215.53;1029802;28;19941;-72
2022/03/08 01:57:00;;;;;;;;;;;;;;;-6.12;100.00;96211.50;1027334;28;20411;-73
2022/03/08 01:57:30;;;;;;;;;;;;;;;-6.10;100.00;96214.75;1031244;28;19914;-72
2022/03/08 01:58:00;;;;;;;;;;;;;;;-6.10;100.00;96219.00;1034058;28;19945;-71
2022/03/08 01:58:31;;;;;;;;;;;;;;;-6.09;100.00;96220.66;1036055;28;19922;-72
2022/03/08 01:59:02;;;;;;;;;;;;;;;-6.09;100.00;96220.66;1037478;28;19913;-71
2022/03/08 01:59:32;;;;;;;;;;;;;;;-6.08;100.00;96217.94;1032033;28;19920;-73
2022/03/08 02:00:04;;;;;;;;;;;;;;;-6.04;100.00;96221.00;1028296;28;20446;-73
2022/03/08 02:00:34;;;;;;;;;;;;;;;-6.03;100.00;96217.50;1023401;29;19918;-73
2022/03/08 02:01:05;;;;;;;;;;;;;;;-6.02;100.00;96214.00;1024677;28;19918;-72
2022/03/08 02:01:35;;;;;;;;;;;;;;;-6.01;100.00;96226.59;1027793;28;19966;-72
2022/03/08 02:02:05;;;;;;;;;;;;;;;-5.99;100.00;96214.50;1028305;28;19918;-70
2022/03/08 02:02:35;;;;;;;;;;;;;;;-5.98;100.00;96213.53;1028468;28;19957;-73
2022/03/08 02:03:06;;;;;;;;;;;;;;;-5.98;100.00;96213.53;1028555;28;20280;-71
2022/03/08 02:03:36;;;;;;;;;;;;;;;-6.01;100.00;96213.03;1020211;29;20046;-72
2022/03/08 02:04:07;;;;;;;;;;;;;;;-6.00;100.00;96214.63;1024094;29;19965;-73
2022/03/08 02:04:37;;;;;;;;;;;;;;;-6.02;100.00;96212.25;1024085;29;19950;-71
2022/03/08 02:05:10;;;;;;;;;;;;;;;-6.01;100.00;96211.28;1024321;29;19923;-73
2022/03/08 02:05:40;;;;;;;;;;;;;;;-6.01;100.00;96213.84;1024518;28;19926;-71
2022/03/08 02:06:10;;;;;;;;;;;;;;;-6.06;100.00;96210.94;1028677;28;19918;-72
2022/03/08 02:06:41;;;;;;;;;;;;;;;-6.05;100.00;96212.53;1027891;28;19945;-73
2022/03/08 02:07:11;;;;;;;;;;;;;;;-6.06;100.00;96217.78;1027284;28;20370;-71
2022/03/08 02:07:42;;;;;;;;;;;;;;;-6.04;100.00;96221.00;1028141;28;20376;-71
2022/03/08 02:08:12;;;;;;;;;;;;;;;-6.05;100.00;96212.53;1028214;28;19914;-72
2022/03/08 02:08:43;;;;;;;;;;;;;;;-6.04;100.00;96214.13;1032033;28;19917;-72
2022/03/08 02:09:13;;;;;;;;;;;;;;;-6.03;100.00;96213.19;1028018;28;19918;-72
2022/03/08 02:09:43;;;;;;;;;;;;;;;-6.05;100.00;96212.53;1023818;29;19922;-72
2022/03/08 02:10:14;;;;;;;;;;;;;;;-6.03;100.00;96214.94;1023641;28;19930;-71
2022/03/08 02:10:44;;;;;;;;;;;;;;;-6.04;100.00;96215.88;1027240;28;19914;-72
2022/03/08 02:11:14;;;;;;;;;;;;;;;-6.07;100.00;96209.34;1024106;29;20364;-73
2022/03/08 02:11:45;;;;;;;;;;;;;;;-6.06;100.00;96218.59;1020088;29;19915;-69
2022/03/08 02:12:15;;;;;;;;;;;;;;;-6.07;100.00;96218.72;1023666;28;19953;-71
2022/03/08 02:12:45;;;;;;;;;;;;;;;-6.09;100.00;96216.34;1024063;29;20289;-71
2022/03/08 02:13:15;;;;;;;;;;;;;;;-6.12;100.00;96214.06;1024045;28;20319;-72
2022/03/08 02:13:46;;;;;;;;;;;;;;;-6.13;100.00;96209.91;1031474;28;19918;-71
2022/03/08 02:14:16;;;;;;;;;;;;;;;-6.08;100.00;96204.34;1027888;28;19910;-72
2022/03/08 02:14:46;;;;;;;;;;;;;;;-6.12;100.00;96208.97;1024141;28;19982;-72
2022/03/08 02:15:27;;;;;;;;;;;;;;;-6.09;100.00;96201.00;1028097;28;19962;-72
2022/03/08 02:15:58;;;;;;;;;;;;;;;-6.08;100.00;96200.06;1032722;28;19910;-72
2022/03/08 02:16:28;;;;;;;;;;;;;;;-6.05;100.00;96204.88;1031948;28;19957;-73
2022/03/08 02:16:59;;;;;;;;;;;;;;;-6.05;100.00;96201.50;1032041;28;19918;-73
2022/03/08 02:17:29;;;;;;;;;;;;;;;-6.07;100.00;96198.28;1031964;28;19918;-72
2022/03/08 02:17:59;;;;;;;;;;;;;;;-6.07;100.00;96196.56;1036284;28;19957;-72
2022/03/08 02:18:30;;;;;;;;;;;;;;;-6.06;100.00;96198.16;1043411;28;19909;-72
2022/03/08 02:19:00;;;;;;;;;;;;;;;-6.06;100.00;96200.72;1041995;28;19951;-71
2022/03/08 02:19:30;;;;;;;;;;;;;;;-6.09;100.00;96201.00;1036459;28;19917;-71
2022/03/08 02:20:01;;;;;;;;;;;;;;;-6.05;100.00;96191.28;1032247;28;20306;-73
2022/03/08 02:20:31;;;;;;;;;;;;;;;-6.03;100.00;96200.44;1027834;28;19997;-73
2022/03/08 02:21:07;;;;;;;;;;;;;;;-6.04;100.00;96198.00;1024195;29;19910;-72
2022/03/08 02:21:37;;;;;;;;;;;;;;;-6.07;100.00;96193.19;1024946;28;19910;-71
2022/03/08 02:22:08;;;;;;;;;;;;;;;-6.08;100.00;96194.16;1025149;28;19914;-72
2022/03/08 02:22:39;;;;;;;;;;;;;;;-6.09;100.00;96190.78;1028787;28;20468;-71
2022/03/08 02:23:09;;;;;;;;;;;;;;;-6.11;100.00;96191.88;1035763;28;20430;-72
2022/03/08 02:23:39;;;;;;;;;;;;;;;-6.13;100.00;96192.03;1036083;28;19952;-72
2022/03/08 02:24:10;;;;;;;;;;;;;;;-6.10;100.00;96193.47;1032771;28;19910;-73
2022/03/08 02:24:40;;;;;;;;;;;;;;;-6.10;100.00;96194.31;1028648;28;19918;-72
2022/03/08 02:25:10;;;;;;;;;;;;;;;-6.09;100.00;96190.78;1035959;28;19914;-71
2022/03/08 02:25:41;;;;;;;;;;;;;;;-6.12;100.00;96185.97;1032088;28;20343;-71
2022/03/08 02:26:11;;;;;;;;;;;;;;;-6.10;100.00;96194.31;1027825;28;20001;-72
2022/03/08 02:26:41;;;;;;;;;;;;;;;-6.11;100.00;96194.44;1027888;28;19910;-71
2022/03/08 02:27:11;;;;;;;;;;;;;;;-6.14;100.00;96190.41;1031966;28;20450;-73
2022/03/08 02:27:42;;;;;;;;;;;;;;;-6.15;100.00;96188.81;1031834;28;19914;-71
2022/03/08 02:28:13;;;;;;;;;;;;;;;-6.15;100.00;96190.56;1031952;28;19961;-71
2022/03/08 02:28:43;;;;;;;;;;;;;;;-6.09;100.00;96190.78;1027730;28;19941;-71
2022/03/08 02:29:13;;;;;;;;;;;;;;;-6.10;100.00;96184.09;1023990;28;20416;-72
2022/03/08 02:29:44;;;;;;;;;;;;;;;-6.11;100.00;96187.56;1027755;28;20406;-72
2022/03/08 02:30:15;;;;;;;;;;;;;;;-6.11;100.00;96192.69;1027935;28;19950;-72
2022/03/08 02:30:45;;;;;;;;;;;;;;;-6.10;100.00;96189.19;1027336;28;19910;-71
2022/03/08 02:31:17;;;;;;;;;;;;;;;-6.07;100.00;96188.06;1027669;28;19914;-72
2022/03/08 02:31:47;;;;;;;;;;;;;;;-6.08;100.00;96186.47;1028223;28;19909;-72
2022/03/08 02:32:18;;;;;;;;;;;;;;;-6.08;100.00;96184.72;1032178;28;19949;-71
2022/03/08 02:32:48;;;;;;;;;;;;;;;-6.04;100.00;96178.38;1036085;28;19920;-72
2022/03/08 02:33:19;;;;;;;;;;;;;;;-6.05;100.00;96178.53;1035912;28;19964;-72
2022/03/08 02:33:49;;;;;;;;;;;;;;;-6.03;100.00;96179.19;1036111;28;19917;-72
2022/03/08 02:34:19;;;;;;;;;;;;;;;-6.02;100.00;96183.34;1027924;28;19918;-72
2022/03/08 02:34:50;;;;;;;;;;;;;;;-6.01;100.00;96183.19;1016015;29;19934;-72
2022/03/08 02:35:21;;;;;;;;;;;;;;;-6.01;100.00;96184.94;1024041;29;20394;-72
2022/03/08 02:35:51;;;;;;;;;;;;;;;-6.04;100.00;96183.47;1032302;28;19910;-71
2022/03/08 02:36:21;;;;;;;;;;;;;;;-6.07;100.00;96178.69;1022407;29;19927;-72
2022/03/08 02:36:55;;;;;;;;;;;;;;;-6.10;100.00;96178.97;1020008;29;20324;-72
2022/03/08 02:37:25;;;;;;;;;;;;;;;-6.13;100.00;96179.28;1020501;29;19918;-71